Time;durP1;ratioP1;P1;durP2;ratioP2;P2;SDS_P1;SDS_P2;PMS_P1;PMS_P2;Temp;Humidity;BMP_temperature;BMP_pressure;BME280_temperature;BME280_humidity;BME280_pressure;Samples;Min_cycle;Max_cycle;Signal;HPM_P1;HPM_P2
2022/09/15 00:01:52;;;;;;;2.65;1.13;;;16.80;99.90;;;;;;5041287;28;20025;-78
2022/09/15 00:04:18;;;;;;;4.18;1.30;;;16.90;99.90;;;;;;5035893;28;20080;-78
2022/09/15 00:06:44;;;;;;;1.98;1.10;;;;;;;;;;5042055;28;20457;-78
2022/09/15 00:09:10;;;;;;;1.88;0.90;;;;;;;;;;5037795;28;20711;-78
2022/09/15 00:11:36;;;;;;;1.55;1.15;;;17.10;99.90;;;;;;5030518;28;20030;-77
2022/09/15 00:14:05;;;;;;;4.20;0.70;;;16.90;99.90;;;;;;5037396;28;20028;-77
2022/09/15 00:16:31;;;;;;;5.22;1.23;;;;;;;;;;5032746;28;20032;-77
2022/09/15 00:18:59;;;;;;;3.20;1.13;;;17.00;99.90;;;;;;5045372;28;20043;-78
2022/09/15 00:21:27;;;;;;;2.90;1.23;;;16.90;99.90;;;;;;5040027;28;20032;-78
2022/09/15 00:23:53;;;;;;;1.90;1.25;;;;;;;;;;5039912;28;20044;-78
2022/09/15 00:26:21;;;;;;;2.25;1.15;;;16.90;99.90;;;;;;5039883;28;20384;-78
2022/09/15 00:28:47;;;;;;;4.40;1.45;;;17.10;99.90;;;;;;5035244;28;20075;-77
2022/09/15 00:31:15;;;;;;;4.00;1.20;;;17.60;99.90;;;;;;5040534;28;20037;-78
2022/09/15 00:33:44;;;;;;;1.52;0.70;;;17.10;99.90;;;;;;5036000;28;20025;-77
2022/09/15 00:36:11;;;;;;;2.45;1.00;;;17.20;99.90;;;;;;5042025;28;20024;-78
2022/09/15 00:38:37;;;;;;;1.80;1.00;;;16.70;99.90;;;;;;5039336;28;20041;-77
2022/09/15 00:41:04;;;;;;;4.82;0.90;;;;;;;;;;5036434;28;20139;-78
2022/09/15 00:43:54;;;;;;;2.00;0.85;;;17.50;99.90;;;;;;5039266;28;20033;-78
2022/09/15 00:46:23;;;;;;;3.72;1.13;;;17.10;99.90;;;;;;5038940;28;20040;-78
2022/09/15 00:49:10;;;;;;;3.85;1.08;;;17.80;99.90;;;;;;5038310;28;20029;-77
2022/09/15 00:51:59;;;;;;;6.40;1.40;;;17.20;99.90;;;;;;5036291;28;20057;-78
2022/09/15 00:54:38;;;;;;;3.75;1.60;;;17.30;99.90;;;;;;5040678;28;20933;-78
2022/09/15 00:57:09;;;;;;;3.05;1.63;;;17.20;99.90;;;;;;5028306;28;21909;-78
2022/09/15 00:59:36;;;;;;;3.53;1.42;;;;;;;;;;5041817;28;20127;-78
2022/09/15 01:02:10;;;;;;;3.60;1.67;;;17.50;99.90;;;;;;5034932;28;20029;-78
2022/09/15 01:04:36;;;;;;;3.65;2.00;;;;;;;;;;5036296;28;20037;-79
2022/09/15 01:07:04;;;;;;;3.15;1.58;;;17.30;99.90;;;;;;5035677;28;20021;-79
2022/09/15 01:09:37;;;;;;;4.50;1.90;;;17.90;99.90;;;;;;5034955;28;20040;-78
2022/09/15 01:12:03;;;;;;;6.38;2.80;;;;;;;;;;5033634;28;20390;-78
2022/09/15 01:14:29;;;;;;;7.82;1.73;;;;;;;;;;5041209;28;20059;-79
2022/09/15 01:17:22;;;;;;;3.65;2.30;;;16.80;99.90;;;;;;5037898;28;20460;-78
2022/09/15 01:20:22;;;;;;;3.70;1.77;;;17.30;99.90;;;;;;5041025;28;20036;-78
2022/09/15 01:22:50;;;;;;;3.05;1.90;;;17.40;99.90;;;;;;5035835;28;20041;-78
2022/09/15 01:25:34;;;;;;;3.72;1.90;;;;;;;;;;5041078;28;20029;-78
2022/09/15 01:28:17;;;;;;;5.28;2.17;;;17.80;99.90;;;;;;5036597;28;20033;-78
2022/09/15 01:30:54;;;;;;;3.08;1.73;;;17.60;99.90;;;;;;5040592;28;20048;-78
2022/09/15 01:33:47;;;;;;;3.90;1.88;;;18.20;99.90;;;;;;5040912;28;20115;-78
2022/09/15 01:36:51;;;;;;;2.17;1.23;;;18.00;99.90;;;;;;5038196;28;20037;-79
2022/09/15 01:39:27;;;;;;;4.82;2.33;;;17.60;99.90;;;;;;5020600;28;20052;-78
2022/09/15 01:41:57;;;;;;;2.45;1.63;;;17.40;99.90;;;;;;5037751;28;20474;-77
2022/09/15 01:44:23;;;;;;;8.50;1.88;;;;;;;;;;5040088;28;20493;-78
2022/09/15 01:46:54;;;;;;;2.85;1.73;;;17.80;99.90;;;;;;5041190;28;20080;-78
2022/09/15 01:49:26;;;;;;;1.67;1.00;;;18.80;99.90;;;;;;5034686;28;20034;-79
2022/09/15 01:51:52;;;;;;;2.28;1.20;;;17.50;99.90;;;;;;5036608;28;20607;-78
2022/09/15 01:54:28;;;;;;;5.82;1.20;;;18.60;99.90;;;;;;5041036;28;20040;-78
2022/09/15 01:56:55;;;;;;;2.72;1.00;;;17.70;99.90;;;;;;5035027;28;20028;-79
2022/09/15 01:59:21;;;;;;;2.35;1.10;;;;;;;;;;5034001;28;20025;-79
2022/09/15 02:02:04;;;;;;;1.83;0.98;;;17.60;99.90;;;;;;5040781;28;20029;-79
2022/09/15 02:04:45;;;;;;;2.05;0.80;;;18.10;99.90;;;;;;5032448;28;20041;-78
2022/09/15 02:07:22;;;;;;;2.17;0.80;;;18.10;99.90;;;;;;5037381;28;20627;-79
2022/09/15 02:10:26;;;;;;;7.47;1.80;;;17.60;99.90;;;;;;5047853;28;20040;-79
2022/09/15 02:13:02;;;;;;;2.13;0.70;;;17.80;99.90;;;;;;5037154;28;20412;-78
2022/09/15 02:15:32;;;;;;;1.67;0.80;;;17.80;99.90;;;;;;5037378;28;20068;-78
2022/09/15 02:18:02;;;;;;;1.60;0.57;;;18.50;99.90;;;;;;5041787;28;20033;-78
2022/09/15 02:20:48;;;;;;;5.15;1.10;;;18.20;99.90;;;;;;5044350;28;20033;-79
2022/09/15 02:23:20;;;;;;;1.48;0.65;;;17.60;99.90;;;;;;5033780;28;20090;-79
2022/09/15 02:25:51;;;;;;;3.45;0.73;;;17.30;99.90;;;;;;5041357;28;20493;-78
2022/09/15 02:28:19;;;;;;;3.08;0.80;;;17.80;99.90;;;;;;5044143;28;20079;-79
2022/09/15 02:30:47;;;;;;;3.08;1.15;;;18.80;99.90;;;;;;5040265;28;20021;-78
2022/09/15 02:33:18;;;;;;;0.60;0.40;;;17.70;99.90;;;;;;5040735;28;20032;-78
2022/09/15 02:35:45;;;;;;;1.08;0.77;;;17.30;99.90;;;;;;5045545;28;20029;-78
2022/09/15 02:38:11;;;;;;;4.15;0.75;;;17.50;99.90;;;;;;5041889;28;20037;-78
2022/09/15 02:40:42;;;;;;;5.63;0.95;;;18.10;99.90;;;;;;5039203;28;20598;-79
2022/09/15 02:43:13;;;;;;;1.55;0.85;;;18.20;99.90;;;;;;5037938;28;20032;-78
2022/09/15 02:45:39;;;;;;;1.70;0.70;;;17.50;99.90;;;;;;5045962;28;20037;-79
2022/09/15 02:48:06;;;;;;;2.47;1.02;;;;;;;;;;5045042;28;20087;-78
2022/09/15 02:50:32;;;;;;;2.05;1.15;;;;;;;;;;5042195;28;20029;-79
2022/09/15 02:52:58;;;;;;;2.47;1.05;;;;;;;;;;5045564;28;20040;-80
2022/09/15 02:55:27;;;;;;;2.70;1.25;;;;;;;;;;5040730;28;20025;-80
2022/09/15 02:57:54;;;;;;;1.65;0.80;;;;;;;;;;5043528;28;20497;-79
2022/09/15 03:00:20;;;;;;;3.10;1.17;;;;;;;;;;5035357;28;22519;-79
2022/09/15 03:02:51;;;;;;;1.30;0.90;;;17.50;99.90;;;;;;5040417;28;20021;-78
2022/09/15 03:05:22;;;;;;;2.30;0.77;;;18.40;99.90;;;;;;5040051;28;20039;-80
2022/09/15 03:07:48;;;;;;;2.17;1.08;;;;;;;;;;5043368;28;20025;-79
2022/09/15 03:10:15;;;;;;;1.52;0.80;;;;;;;;;;5044192;28;20032;-79
2022/09/15 03:12:46;;;;;;;0.60;0.50;;;17.40;99.90;;;;;;5035316;28;20119;-79
2022/09/15 03:15:13;;;;;;;1.40;0.77;;;17.70;99.90;;;;;;5040188;28;20031;-80
2022/09/15 03:17:41;;;;;;;2.72;0.88;;;17.60;99.90;;;;;;5042551;28;20420;-78
2022/09/15 03:20:09;;;;;;;1.13;0.52;;;17.20;99.90;;;;;;5041651;28;20078;-78
2022/09/15 03:22:35;;;;;;;1.00;0.68;;;17.40;99.90;;;;;;5037572;28;20029;-79
2022/09/15 03:25:02;;;;;;;2.05;1.17;;;;;;;;;;5040000;28;20041;-78
2022/09/15 03:27:28;;;;;;;1.40;0.60;;;;;;;;;;5044067;28;20080;-80
2022/09/15 03:29:53;;;;;;;2.42;0.98;;;;;;;;;;5040295;28;20056;-79
2022/09/15 03:32:19;;;;;;;1.13;0.70;;;;;;;;;;5037705;28;20627;-79
2022/09/15 03:34:45;;;;;;;1.25;0.60;;;;;;;;;;5037705;28;20600;-79
2022/09/15 03:37:11;;;;;;;1.77;0.90;;;17.40;99.90;;;;;;5039248;28;20529;-80
2022/09/15 03:39:37;;;;;;;1.55;0.70;;;;;;;;;;5042592;28;20400;-79
2022/09/15 03:42:03;;;;;;;1.10;0.63;;;;;;;;;;5039444;28;20080;-79
2022/09/15 03:44:29;;;;;;;1.33;0.52;;;17.20;99.90;;;;;;5043711;28;20489;-79
2022/09/15 03:46:56;;;;;;;1.73;1.00;;;;;;;;;;5042294;28;20048;-79
2022/09/15 03:49:23;;;;;;;1.20;0.68;;;;;;;;;;5040739;28;20025;-78
2022/09/15 03:51:49;;;;;;;1.15;0.50;;;;;;;;;;5040823;28;20029;-79
2022/09/15 03:54:15;;;;;;;1.42;0.68;;;17.40;99.90;;;;;;5038622;28;20501;-78
2022/09/15 03:56:41;;;;;;;1.65;0.73;;;;;;;;;;5038041;28;20024;-79
2022/09/15 03:59:07;;;;;;;3.97;1.15;;;;;;;;;;5043903;28;20160;-79
2022/09/15 04:01:33;;;;;;;1.35;1.02;;;17.30;99.90;;;;;;5035238;28;20025;-78
2022/09/15 04:03:59;;;;;;;3.05;1.10;;;;;;;;;;5040006;28;20029;-79
2022/09/15 04:06:25;;;;;;;1.67;0.95;;;17.20;99.90;;;;;;5045330;28;20033;-79
2022/09/15 04:08:52;;;;;;;2.08;0.85;;;18.00;99.90;;;;;;5041825;28;20033;-78
2022/09/15 04:11:19;;;;;;;2.97;1.17;;;17.30;99.90;;;;;;5040760;28;20489;-78
2022/09/15 04:13:45;;;;;;;1.58;0.80;;;17.20;99.90;;;;;;5042507;28;20036;-78
2022/09/15 04:16:14;;;;;;;2.05;0.70;;;17.10;99.90;;;;;;5041608;28;20017;-78
2022/09/15 04:18:40;;;;;;;2.88;1.08;;;17.40;99.90;;;;;;5037374;28;20027;-78
2022/09/15 04:21:10;;;;;;;2.88;1.35;;;18.30;99.90;;;;;;5044418;28;20782;-79
2022/09/15 04:23:36;;;;;;;2.78;1.67;;;;;;;;;;5037287;28;20067;-81
2022/09/15 04:26:05;;;;;;;8.05;1.70;;;17.40;99.90;;;;;;5024408;28;20032;-78
2022/09/15 04:28:32;;;;;;;4.25;1.80;;;;;;;;;;5038441;28;20056;-79
2022/09/15 04:31:12;;;;;;;3.60;2.10;;;17.50;99.90;;;;;;5028124;28;20032;-79
2022/09/15 04:33:40;;;;;;;2.70;1.55;;;17.40;99.90;;;;;;5038310;28;20033;-78
2022/09/15 04:36:08;;;;;;;3.10;1.63;;;17.30;99.90;;;;;;5044132;28;20025;-78
2022/09/15 04:38:34;;;;;;;4.45;2.13;;;18.30;99.90;;;;;;5043793;28;20033;-78
2022/09/15 04:41:01;;;;;;;3.00;1.98;;;18.10;99.90;;;;;;5043348;28;20768;-79
2022/09/15 04:43:27;;;;;;;3.28;1.48;;;17.60;99.90;;;;;;5035416;28;20481;-79
2022/09/15 04:45:53;;;;;;;3.95;2.30;;;17.50;99.90;;;;;;5033662;28;20037;-78
2022/09/15 04:48:20;;;;;;;3.45;1.88;;;18.30;99.90;;;;;;5032689;28;20037;-79
2022/09/15 04:50:46;;;;;;;5.15;2.58;;;;;;;;;;5037641;28;20036;-79
2022/09/15 04:53:12;;;;;;;4.45;2.00;;;;;;;;;;5043652;28;20041;-78
2022/09/15 04:55:38;;;;;;;4.07;2.22;;;;;;;;;;5043538;28;20025;-79
2022/09/15 04:58:04;;;;;;;3.13;1.70;;;;;;;;;;5044769;28;20067;-77
2022/09/15 05:00:33;;;;;;;3.20;2.35;;;17.50;99.90;;;;;;5039188;28;20050;-79
2022/09/15 05:02:59;;;;;;;7.28;2.70;;;;;;;;;;5045521;28;20028;-78
2022/09/15 05:05:25;;;;;;;4.03;2.75;;;;;;;;;;5041982;28;20180;-78
2022/09/15 05:07:51;;;;;;;5.38;2.97;;;;;;;;;;5041153;28;20510;-79
2022/09/15 05:10:18;;;;;;;4.97;2.53;;;;;;;;;;5044665;28;20029;-79
2022/09/15 05:12:44;;;;;;;3.40;2.65;;;;;;;;;;5037055;28;20021;-79
2022/09/15 05:15:10;;;;;;;4.55;2.97;;;;;;;;;;5037128;28;20028;-79
2022/09/15 05:17:36;;;;;;;4.20;3.08;;;;;;;;;;5038150;28;20025;-78
2022/09/15 05:20:03;;;;;;;4.97;2.88;;;;;;;;;;5040970;28;20051;-78
2022/09/15 05:22:28;;;;;;;3.83;2.50;;;18.20;99.90;;;;;;5045145;28;20109;-78
2022/09/15 05:24:54;;;;;;;4.30;2.40;;;;;;;;;;5032129;28;20033;-78
2022/09/15 05:27:20;;;;;;;3.78;2.60;;;;;;;;;;5049211;28;20094;-78
2022/09/15 05:29:46;;;;;;;8.00;3.72;;;;;;;;;;5057994;28;20043;-78
2022/09/15 05:32:12;;;;;;;7.45;3.60;;;;;;;;;;5042953;28;20021;-77
2022/09/15 05:34:38;;;;;;;4.43;2.97;;;;;;;;;;5042859;28;20158;-78
2022/09/15 05:37:04;;;;;;;5.57;2.97;;;;;;;;;;5049480;28;20661;-79
2022/09/15 05:39:30;;;;;;;4.82;3.05;;;;;;;;;;5044963;28;20036;-77
2022/09/15 05:41:56;;;;;;;5.32;3.08;;;;;;;;;;5042429;28;20501;-79
2022/09/15 05:44:22;;;;;;;3.25;2.45;;;;;;;;;;5048245;28;20322;-78
2022/09/15 05:46:48;;;;;;;6.28;3.53;;;17.50;99.90;;;;;;5048610;28;20036;-78
2022/09/15 05:49:14;;;;;;;4.70;2.60;;;;;;;;;;5045496;28;20025;-78
2022/09/15 05:51:40;;;;;;;7.40;3.35;;;;;;;;;;5045783;28;20029;-78
2022/09/15 05:54:06;;;;;;;4.32;2.75;;;18.50;99.90;;;;;;5050148;28;20020;-77
2022/09/15 05:56:32;;;;;;;5.95;2.90;;;;;;;;;;5043667;28;20028;-79
2022/09/15 05:58:58;;;;;;;5.43;3.25;;;17.70;99.90;;;;;;5053049;28;20056;-78
2022/09/15 06:01:26;;;;;;;3.17;2.25;;;17.20;99.90;;;;;;5046322;28;20100;-78
2022/09/15 06:03:53;;;;;;;5.70;2.83;;;18.40;99.90;;;;;;5048211;28;20029;-79
2022/09/15 06:06:20;;;;;;;2.58;1.50;;;;;;;;;;5045258;28;20449;-78
2022/09/15 06:08:49;;;;;;;0.90;0.50;;;17.70;99.90;;;;;;5045438;28;20096;-78
2022/09/15 06:11:19;;;;;;;0.50;0.30;;;18.20;99.90;;;;;;5040775;28;20025;-77
2022/09/15 06:13:46;;;;;;;0.85;0.40;;;17.50;99.90;;;;;;5044083;28;20029;-78
2022/09/15 06:16:20;;;;;;;1.23;0.47;;;17.40;99.90;;;;;;5048518;28;20029;-78
2022/09/15 06:18:47;;;;;;;0.88;0.32;;;17.50;99.90;;;;;;5045445;28;20079;-78
2022/09/15 06:21:15;;;;;;;0.93;0.45;;;17.40;99.90;;;;;;5050444;28;20021;-77
2022/09/15 06:23:42;;;;;;;0.40;0.30;;;;;;;;;;5050357;28;20056;-77
2022/09/15 06:26:13;;;;;;;1.75;0.55;;;18.00;99.90;;;;;;5044451;28;20069;-77
2022/09/15 06:28:40;;;;;;;1.60;0.40;;;;;;;;;;5052006;28;20025;-78
2022/09/15 06:31:11;;;;;;;0.40;0.25;;;17.30;99.90;;;;;;5049457;28;20382;-78
2022/09/15 06:33:39;;;;;;;0.80;0.32;;;17.30;99.90;;;;;;5046183;28;20075;-78
2022/09/15 06:36:06;;;;;;;0.10;0.10;;;17.70;99.90;;;;;;5052247;28;20047;-78
2022/09/15 06:38:32;;;;;;;0.65;0.28;;;;;;;;;;5045272;28;20104;-78
2022/09/15 06:40:58;;;;;;;0.20;0.10;;;;;;;;;;5045123;28;20116;-78
2022/09/15 06:43:24;;;;;;;0.20;0.20;;;17.20;99.90;;;;;;5044363;28;20016;-79
2022/09/15 06:45:51;;;;;;;3.30;0.20;;;17.30;99.90;;;;;;5048955;28;20039;-78
2022/09/15 06:48:16;;;;;;;0.20;0.20;;;17.50;99.90;;;;;;5043847;28;20029;-78
2022/09/15 06:50:42;;;;;;;2.05;0.30;;;;;;;;;;5048428;28;20033;-77
2022/09/15 06:53:08;;;;;;;0.77;0.13;;;17.40;99.90;;;;;;5043784;28;20040;-78
2022/09/15 06:55:34;;;;;;;0.80;0.38;;;;;;;;;;5046732;28;20060;-77
2022/09/15 06:58:00;;;;;;;0.70;0.20;;;;;;;;;;5049098;28;20037;-78
2022/09/15 07:00:28;;;;;;;0.30;0.00;;;;;;;;;;5051415;28;20036;-78
2022/09/15 07:02:53;;;;;;;0.38;0.20;;;18.30;99.90;;;;;;5047989;28;20120;-77
2022/09/15 07:05:19;;;;;;;1.05;0.30;;;17.20;99.90;;;;;;5049059;28;20132;-78
2022/09/15 07:07:45;;;;;;;1.80;0.20;;;17.30;99.90;;;;;;5044771;28;20021;-77
2022/09/15 07:10:11;;;;;;;0.73;0.15;;;;;;;;;;5048401;28;20017;-77
2022/09/15 07:12:37;;;;;;;2.40;0.43;;;;;;;;;;5047738;28;20060;-77
2022/09/15 07:15:03;;;;;;;0.47;0.20;;;17.80;99.90;;;;;;5046642;28;20059;-77
2022/09/15 07:17:29;;;;;;;0.10;0.03;;;;;;;;;;5049553;28;20021;-77
2022/09/15 07:19:55;;;;;;;0.05;0.05;;;;;;;;;;5053848;28;20433;-78
2022/09/15 07:22:21;;;;;;;0.20;0.10;;;;;;;;;;5042459;28;20036;-78
2022/09/15 07:24:46;;;;;;;0.05;0.00;;;17.10;99.90;;;;;;5042414;28;20313;-78
2022/09/15 07:27:12;;;;;;;0.08;0.00;;;;;;;;;;5042286;28;20022;-78
2022/09/15 07:29:38;;;;;;;2.05;0.20;;;;;;;;;;5055925;28;20052;-77
2022/09/15 07:32:04;;;;;;;1.08;0.30;;;17.30;99.90;;;;;;5047372;28;20053;-78
2022/09/15 07:34:30;;;;;;;3.80;0.70;;;16.90;99.90;;;;;;5050385;28;20025;-78
2022/09/15 07:36:56;;;;;;;2.25;0.50;;;;;;;;;;5046590;28;20644;-77
2022/09/15 07:39:22;;;;;;;0.30;0.10;;;;;;;;;;5048017;28;20024;-77
2022/09/15 07:41:48;;;;;;;0.10;0.10;;;;;;;;;;5047807;28;20024;-78
2022/09/15 07:44:14;;;;;;;0.20;0.20;;;;;;;;;;5052436;28;20031;-78
2022/09/15 07:46:40;;;;;;;4.28;1.33;;;;;;;;;;5047506;28;20029;-78
2022/09/15 07:49:07;;;;;;;6.90;2.58;;;;;;;;;;5047597;28;20031;-78
2022/09/15 07:51:33;;;;;;;2.33;1.25;;;;;;;;;;5048785;28;20416;-78
2022/09/15 07:53:59;;;;;;;0.63;0.40;;;17.20;99.90;;;;;;5045633;28;20623;-78
2022/09/15 07:56:24;;;;;;;0.38;0.22;;;17.90;99.90;;;;;;5051440;28;20187;-78
2022/09/15 07:58:50;;;;;;;0.00;0.00;;;17.70;99.90;;;;;;5056764;28;20370;-78
2022/09/15 08:01:17;;;;;;;1.38;0.10;;;17.80;99.90;;;;;;5048686;28;20067;-78
2022/09/15 08:03:45;;;;;;;0.00;0.00;;;18.00;99.90;;;;;;5053978;28;20035;-79
2022/09/15 08:06:11;;;;;;;0.10;0.00;;;18.70;99.90;;;;;;5047717;28;20042;-78
2022/09/15 08:08:38;;;;;;;0.35;0.20;;;18.50;99.90;;;;;;5049650;28;20026;-78
2022/09/15 08:11:07;;;;;;;0.60;0.10;;;18.60;99.90;;;;;;5047267;28;20033;-78
2022/09/15 08:13:33;;;;;;;0.00;0.00;;;18.80;99.90;;;;;;5040383;28;20383;-78
2022/09/15 08:16:11;;;;;;;0.30;0.10;;;18.90;99.90;;;;;;5049683;28;20029;-78
2022/09/15 08:18:37;;;;;;;0.15;0.10;;;19.10;99.90;;;;;;5043393;28;20117;-78
2022/09/15 08:21:05;;;;;;;0.03;0.03;;;18.10;99.90;;;;;;5045787;28;20104;-78
2022/09/15 08:23:31;;;;;;;0.35;0.10;;;18.80;99.90;;;;;;5040097;28;20037;-78
2022/09/15 08:25:57;;;;;;;0.10;0.08;;;;;;;;;;5042982;28;20040;-78
2022/09/15 08:28:24;;;;;;;0.10;0.10;;;;;;;;;;5051988;28;20017;-78
2022/09/15 08:30:58;;;;;;;0.52;0.00;;;18.00;99.90;;;;;;5040878;28;20163;-78
2022/09/15 08:33:24;;;;;;;0.30;0.03;;;;;;;;;;5052077;28;20105;-78
2022/09/15 08:35:50;;;;;;;0.13;0.00;;;;;;;;;;5049830;28;20108;-78
2022/09/15 08:38:16;;;;;;;0.03;0.03;;;;;;;;;;5052375;28;20027;-79
2022/09/15 08:40:44;;;;;;;3.92;0.10;;;;;;;;;;5045271;28;20085;-78
2022/09/15 08:43:20;;;;;;;0.55;0.17;;;18.40;99.90;;;;;;5046024;28;20059;-78
2022/09/15 08:45:56;;;;;;;1.10;0.20;;;17.80;99.90;;;;;;5050844;28;20516;-78
2022/09/15 08:48:29;;;;;;;0.65;0.25;;;17.70;99.90;;;;;;5040633;28;20116;-78
2022/09/15 08:50:58;;;;;;;0.90;0.47;;;17.20;99.90;;;;;;5047054;28;20044;-78
2022/09/15 08:53:48;;;;;;;2.05;0.70;;;18.00;99.90;;;;;;5058607;28;20115;-78
2022/09/15 08:56:16;;;;;;;8.23;1.00;;;17.70;99.90;;;;;;5040665;28;20111;-77
2022/09/15 08:58:43;;;;;;;1.90;0.30;;;17.10;99.90;;;;;;5049477;28;20021;-78
2022/09/15 09:01:42;;;;;;;0.45;0.20;;;17.50;99.90;;;;;;5047699;28;20116;-77
2022/09/15 09:04:41;;;;;;;1.42;0.30;;;17.50;99.90;;;;;;5043439;28;20075;-78
2022/09/15 09:07:19;;;;;;;1.90;0.68;;;16.90;99.90;;;;;;5051797;28;20058;-77
2022/09/15 09:10:05;;;;;;;0.65;0.40;;;16.90;99.90;;;;;;5041821;28;20056;-78
2022/09/15 09:12:52;;;;;;;1.13;0.60;;;17.00;99.90;;;;;;5041692;28;20321;-78
2022/09/15 09:15:42;;;;;;;2.33;0.50;;;17.10;99.90;;;;;;5048193;28;20029;-78
2022/09/15 09:18:38;;;;;;;1.08;0.55;;;16.90;99.90;;;;;;5048626;28;20057;-79
2022/09/15 09:21:04;;;;;;;4.93;1.02;;;16.90;99.90;;;;;;5038667;28;20033;-78
2022/09/15 09:23:32;;;;;;;5.32;1.13;;;16.80;99.90;;;;;;5044010;28;20201;-78
2022/09/15 09:26:00;;;;;;;0.93;0.50;;;16.80;99.90;;;;;;5043179;28;20230;-78
2022/09/15 09:28:29;;;;;;;1.35;0.80;;;16.20;99.90;;;;;;5047646;28;20024;-78
2022/09/15 09:31:05;;;;;;;1.13;0.63;;;16.90;99.90;;;;;;5051073;28;20503;-78
2022/09/15 09:33:40;;;;;;;5.30;0.60;;;16.80;99.90;;;;;;5041169;28;20127;-78
2022/09/15 09:36:08;;;;;;;1.05;0.47;;;17.00;99.90;;;;;;5045709;28;20140;-79
2022/09/15 09:38:37;;;;;;;2.22;0.47;;;17.00;99.90;;;;;;5042335;28;20579;-78
2022/09/15 09:41:11;;;;;;;3.50;0.82;;;;;;;;;;5043295;28;20037;-78
2022/09/15 09:43:36;;;;;;;3.80;1.05;;;17.80;99.90;;;;;;5045596;28;20111;-78
2022/09/15 09:46:04;;;;;;;3.90;0.95;;;;;;;;;;5050477;28;20532;-79
2022/09/15 09:48:30;;;;;;;2.28;1.00;;;17.10;99.90;;;;;;5046782;28;20032;-79
2022/09/15 09:50:56;;;;;;;2.72;1.08;;;;;;;;;;5043651;28;20072;-78
2022/09/15 09:53:32;;;;;;;4.70;1.38;;;;;;;;;;5049892;28;20101;-78
2022/09/15 09:56:15;;;;;;;6.40;0.88;;;16.60;99.90;;;;;;5034299;28;20104;-79
2022/09/15 09:58:40;;;;;;;1.63;0.73;;;;;;;;;;5046098;28;20056;-78
2022/09/15 10:01:15;;;;;;;1.95;0.80;;;17.70;99.90;;;;;;5033171;28;20083;-79
2022/09/15 10:03:42;;;;;;;2.50;0.85;;;;;;;;;;5034628;28;20033;-78
2022/09/15 10:06:13;;;;;;;1.65;0.88;;;16.80;99.90;;;;;;5042644;28;20409;-77
2022/09/15 10:08:57;;;;;;;4.40;0.90;;;17.40;99.90;;;;;;5043075;28;20460;-78
2022/09/15 10:11:45;;;;;;;1.95;0.77;;;17.00;99.90;;;;;;5044027;28;20524;-78
2022/09/15 10:14:20;;;;;;;5.63;1.83;;;17.10;99.90;;;;;;5036315;28;20370;-78
2022/09/15 10:16:57;;;;;;;2.35;0.90;;;17.40;99.90;;;;;;5045329;28;20033;-78
2022/09/15 10:19:23;;;;;;;1.85;1.27;;;;;;;;;;5050793;28;20107;-79
2022/09/15 10:21:49;;;;;;;5.03;1.02;;;17.30;99.90;;;;;;5050156;28;20128;-78
2022/09/15 10:24:32;;;;;;;6.72;1.33;;;17.90;99.90;;;;;;5044464;28;20548;-78
2022/09/15 10:27:24;;;;;;;3.53;1.42;;;16.60;99.90;;;;;;5042362;28;20025;-78
2022/09/15 10:29:49;;;;;;;3.47;1.20;;;17.20;99.90;;;;;;5035460;28;20131;-79
2022/09/15 10:32:20;;;;;;;10.25;1.63;;;17.10;99.90;;;;;;5049238;28;20057;-78
2022/09/15 10:34:47;;;;;;;4.10;1.58;;;;;;;;;;5031959;28;20025;-78
2022/09/15 10:37:25;;;;;;;1.48;1.13;;;17.20;99.90;;;;;;5038851;28;20040;-78
2022/09/15 10:39:57;;;;;;;2.80;1.20;;;17.20;99.90;;;;;;5047978;28;20017;-78
2022/09/15 10:42:51;;;;;;;2.55;1.30;;;17.70;99.90;;;;;;5042703;28;20439;-78
2022/09/15 10:45:31;;;;;;;3.60;1.02;;;17.20;99.90;;;;;;5045777;28;20053;-78
2022/09/15 10:48:22;;;;;;;3.13;1.30;;;16.90;99.90;;;;;;5041130;28;20040;-78
2022/09/15 10:50:59;;;;;;;3.33;1.48;;;16.10;99.90;;;;;;5029225;28;20409;-79
2022/09/15 10:53:43;;;;;;;6.72;1.30;;;16.80;99.90;;;;;;5056725;28;20847;-78
2022/09/15 10:56:27;;;;;;;3.17;1.25;;;17.00;99.90;;;;;;5048608;28;20029;-78
2022/09/15 10:58:55;;;;;;;;;;;17.10;99.90;;;;;;5049911;28;20543;-79
2022/09/15 11:01:26;;;;;;;2.15;1.35;;;17.30;99.90;;;;;;5050776;28;19912;-78
2022/09/15 11:03:52;;;;;;;3.03;0.77;;;;;;;;;;5047595;28;20029;-79
2022/09/15 11:06:33;;;;;;;7.20;1.85;;;17.20;99.90;;;;;;5045662;28;20424;-79
2022/09/15 11:09:13;;;;;;;1.77;1.25;;;17.30;99.90;;;;;;5048285;28;20039;-78
2022/09/15 11:11:54;;;;;;;1.77;0.98;;;17.20;99.90;;;;;;5048573;28;20036;-78
2022/09/15 11:14:34;;;;;;;1.38;1.10;;;17.20;99.90;;;;;;5053883;28;20042;-79
2022/09/15 11:17:27;;;;;;;1.35;0.95;;;17.50;99.90;;;;;;5050926;28;20029;-78
2022/09/15 11:20:14;;;;;;;4.97;1.27;;;16.80;99.90;;;;;;5047896;28;20654;-79
2022/09/15 11:22:59;;;;;;;4.45;1.73;;;17.40;99.90;;;;;;5049146;28;20037;-78
2022/09/15 11:25:32;;;;;;;4.97;1.27;;;17.60;99.90;;;;;;5051192;28;20658;-79
2022/09/15 11:28:21;;;;;;;2.67;1.45;;;17.50;99.90;;;;;;5051037;28;20401;-78
2022/09/15 11:30:56;;;;;;;2.85;1.25;;;18.10;99.90;;;;;;5047700;28;20052;-79
2022/09/15 11:33:31;;;;;;;1.90;1.20;;;18.40;99.90;;;;;;5049708;28;20040;-79
2022/09/15 11:36:08;;;;;;;2.17;1.15;;;17.40;99.90;;;;;;5045370;28;20037;-79
2022/09/15 11:38:48;;;;;;;1.42;0.70;;;17.20;99.90;;;;;;5046033;28;20104;-79
2022/09/15 11:41:27;;;;;;;3.97;1.15;;;17.30;99.90;;;;;;5047847;28;20072;-79
2022/09/15 11:44:12;;;;;;;5.53;1.80;;;17.30;99.90;;;;;;5049343;28;20021;-78
2022/09/15 11:46:58;;;;;;;1.35;0.70;;;17.90;99.90;;;;;;5045421;28;20041;-79
2022/09/15 11:49:42;;;;;;;4.05;1.00;;;18.40;99.90;;;;;;5044598;28;20017;-79
2022/09/15 11:52:21;;;;;;;10.43;2.03;;;18.90;99.90;;;;;;5050349;28;20041;-78
2022/09/15 11:55:19;;;;;;;6.10;1.02;;;18.00;99.90;;;;;;5047543;28;20025;-78
2022/09/15 11:58:07;;;;;;;3.70;1.02;;;18.70;99.90;;;;;;4999939;28;20549;-78
2022/09/15 12:00:42;;;;;;;7.63;1.50;;;19.20;99.90;;;;;;5021713;28;20363;-78
2022/09/15 12:03:32;;;;;;;5.75;1.55;;;18.70;99.90;;;;;;5043881;28;20033;-79
2022/09/15 12:06:04;;;;;;;3.63;1.88;;;18.70;99.90;;;;;;5055418;28;20052;-78
2022/09/15 12:08:39;;;;;;;4.25;1.08;;;;;;;;;;5048485;28;20553;-79
2022/09/15 12:11:13;;;;;;;2.72;0.82;;;18.60;99.90;;;;;;5049219;28;20033;-78
2022/09/15 12:13:39;;;;;;;1.48;0.70;;;18.20;99.90;;;;;;5049083;28;20054;-78
2022/09/15 12:16:06;;;;;;;1.95;0.70;;;18.60;99.90;;;;;;5048264;28;20045;-78
2022/09/15 12:18:44;;;;;;;2.50;1.00;;;18.00;99.90;;;;;;5051042;28;20056;-79
2022/09/15 12:21:22;;;;;;;4.32;0.93;;;18.90;99.90;;;;;;5041982;28;20032;-78
2022/09/15 12:24:09;;;;;;;2.72;0.60;;;18.70;99.90;;;;;;5044730;28;20028;-79
2022/09/15 12:26:36;;;;;;;1.42;0.60;;;18.70;99.90;;;;;;5045950;28;20033;-78
2022/09/15 12:29:23;;;;;;;2.17;0.90;;;18.90;99.90;;;;;;5042941;28;20718;-78
2022/09/15 12:32:27;;;;;;;3.30;0.65;;;19.10;99.90;;;;;;5036434;28;20055;-78
2022/09/15 12:34:55;;;;;;;2.53;1.10;;;19.00;99.90;;;;;;5048548;28;20040;-78
2022/09/15 12:37:23;;;;;;;2.65;0.90;;;;;;;;;;5051350;28;20032;-78
2022/09/15 12:39:49;;;;;;;8.38;1.73;;;;;;;;;;5048216;28;20056;-78
2022/09/15 12:42:30;;;;;;;0.60;0.50;;;19.30;99.90;;;;;;5048535;28;20029;-78
2022/09/15 12:45:21;;;;;;;1.75;0.65;;;19.30;99.90;;;;;;5045166;28;20049;-78
2022/09/15 12:48:00;;;;;;;5.13;0.90;;;19.30;99.90;;;;;;5047342;28;20108;-78
2022/09/15 12:50:38;;;;;;;2.00;0.80;;;19.40;99.90;;;;;;5042668;28;20095;-79
2022/09/15 12:53:27;;;;;;;3.83;1.08;;;19.40;99.90;;;;;;5045952;28;20103;-78
2022/09/15 12:56:02;;;;;;;1.38;0.60;;;19.60;99.90;;;;;;5044571;28;20040;-78
2022/09/15 12:58:38;;;;;;;1.77;0.63;;;19.40;99.90;;;;;;5054244;28;20074;-78
2022/09/15 13:01:21;;;;;;;6.53;0.63;;;19.90;99.90;;;;;;5043424;28;20044;-79
2022/09/15 13:03:49;;;;;;;5.88;0.40;;;19.90;99.90;;;;;;5041442;28;20071;-79
2022/09/15 13:06:18;;;;;;;2.20;0.98;;;19.50;99.90;;;;;;5045804;28;20090;-78
2022/09/15 13:09:04;;;;;;;2.80;0.75;;;19.80;99.90;;;;;;5053360;28;20024;-78
2022/09/15 13:11:33;;;;;;;1.45;0.55;;;19.00;99.90;;;;;;5031385;28;20634;-78
2022/09/15 13:14:14;;;;;;;5.50;0.88;;;;;;;;;;5053869;28;20064;-78
2022/09/15 13:16:43;;;;;;;3.65;0.75;;;;;;;;;;5047483;28;21768;-78
2022/09/15 13:19:28;;;;;;;1.42;0.50;;;19.20;99.90;;;;;;5043514;28;20037;-78
2022/09/15 13:22:26;;;;;;;1.95;0.80;;;18.90;99.90;;;;;;5048659;28;20025;-78
2022/09/15 13:25:00;;;;;;;5.85;0.80;;;18.50;99.90;;;;;;5043157;28;20036;-78
2022/09/15 13:27:33;;;;;;;1.58;0.52;;;;;;;;;;5043770;28;20506;-79
2022/09/15 13:30:28;;;;;;;1.90;1.23;;;20.10;99.90;;;;;;5036262;28;20064;-78
2022/09/15 13:33:08;;;;;;;2.40;0.80;;;19.90;99.90;;;;;;5043933;28;20025;-78
2022/09/15 13:35:55;;;;;;;1.35;0.60;;;19.90;99.90;;;;;;5041831;28;20025;-79
2022/09/15 13:38:55;;;;;;;2.97;0.80;;;19.70;99.90;;;;;;5048346;28;20043;-78
2022/09/15 13:41:48;;;;;;;5.25;1.05;;;19.40;99.90;;;;;;5051040;28;20032;-79
2022/09/15 13:44:24;;;;;;;;;;;20.10;99.90;;;;;;5052273;28;20061;-78
2022/09/15 13:46:52;;;;;;;1.15;0.45;;;19.70;99.90;;;;;;5042399;28;19920;-78